Time;durP1;ratioP1;P1;durP2;ratioP2;P2;SDS_P1;SDS_P2;PMS_P1;PMS_P2;Temp;Humidity;BMP_temperature;BMP_pressure;BME280_temperature;BME280_humidity;BME280_pressure;Samples;Min_cycle;Max_cycle;Signal;HPM_P1;HPM_P2
2021/07/04 00:02:00;;;;;;;;;;;17.00;99.90;;;;;;5020572;28;20589;-61
2021/07/04 00:04:48;;;;;;;;;;;16.90;99.90;;;;;;5031819;28;19925;-61
2021/07/04 00:07:41;;;;;;;;;;;17.00;99.90;;;;;;5029753;28;19929;-61
2021/07/04 00:10:32;;;;;;;;;;;17.10;99.90;;;;;;5026897;28;19929;-62
2021/07/04 00:13:22;;;;;;;;;;;17.20;99.90;;;;;;5032000;28;19925;-62
2021/07/04 00:16:35;;;;;;;;;;;17.40;99.90;;;;;;5023857;28;19929;-64
2021/07/04 00:19:25;;;;;;;;;;;17.60;99.90;;;;;;5026256;28;19936;-62
2021/07/04 00:22:14;;;;;;;;;;;17.70;99.90;;;;;;5032883;28;19936;-63
2021/07/04 00:25:03;;;;;;;;;;;17.80;99.90;;;;;;5035575;28;20019;-62
2021/07/04 00:27:52;;;;;;;;;;;17.90;99.90;;;;;;5031671;28;19933;-61
2021/07/04 00:30:41;;;;;;;;;;;17.90;99.90;;;;;;5021119;28;19925;-62
2021/07/04 00:33:30;;;;;;;;;;;18.00;99.90;;;;;;5037272;28;19925;-62
2021/07/04 00:36:21;;;;;;;;;;;18.00;99.90;;;;;;5028361;28;19926;-62
2021/07/04 00:39:10;;;;;;;;;;;18.10;99.90;;;;;;5031251;28;19943;-61
2021/07/04 00:41:58;;;;;;;;;;;18.00;99.90;;;;;;5032242;28;19973;-62
2021/07/04 00:44:47;;;;;;;;;;;18.00;99.90;;;;;;5024306;28;19925;-62
2021/07/04 00:47:36;;;;;;;;;;;18.00;99.90;;;;;;5062435;28;19960;-62
2021/07/04 00:50:26;;;;;;;;;;;17.90;99.90;;;;;;5056484;28;19925;-63
2021/07/04 00:53:16;;;;;;;;;;;18.00;99.90;;;;;;5068117;28;19913;-62
2021/07/04 00:56:05;;;;;;;;;;;18.00;99.90;;;;;;5062949;28;19924;-62
2021/07/04 00:58:55;;;;;;;;;;;18.00;99.90;;;;;;5058216;28;19948;-63
2021/07/04 01:01:43;;;;;;;;;;;18.00;99.90;;;;;;5065987;28;19953;-63
2021/07/04 01:04:33;;;;;;;;;;;18.10;99.90;;;;;;5062928;28;19971;-62
2021/07/04 01:07:22;;;;;;;;;;;18.10;99.90;;;;;;5048395;28;19951;-62
2021/07/04 01:10:14;;;;;;;;;;;18.00;99.90;;;;;;5039511;28;19950;-61
2021/07/04 01:13:05;;;;;;;;;;;18.10;99.90;;;;;;5035179;28;19933;-61
2021/07/04 01:15:57;;;;;;;;;;;18.10;99.90;;;;;;5046603;28;20369;-61
2021/07/04 01:18:46;;;;;;;;;;;18.10;99.90;;;;;;5054662;28;19936;-62
2021/07/04 01:21:45;;;;;;;;;;;18.10;99.90;;;;;;5032784;28;20001;-61
2021/07/04 01:24:35;;;;;;;;;;;18.10;99.90;;;;;;5054085;28;19924;-62
2021/07/04 01:27:24;;;;;;;;;;;18.10;99.90;;;;;;5048264;28;19972;-62
2021/07/04 01:30:14;;;;;;;;;;;18.00;99.90;;;;;;5050833;28;20020;-62
2021/07/04 01:33:03;;;;;;;;;;;18.10;99.90;;;;;;5048733;28;20296;-61
2021/07/04 01:35:52;;;;;;;;;;;18.00;99.90;;;;;;5052551;28;20019;-61
2021/07/04 01:38:42;;;;;;;;;;;17.90;99.90;;;;;;5049160;28;19929;-61
2021/07/04 01:41:35;;;;;;;;;;;17.90;99.90;;;;;;5032591;28;20059;-62
2021/07/04 01:44:27;;;;;;;;;;;17.80;99.90;;;;;;5055092;28;19929;-61
2021/07/04 01:47:16;;;;;;;;;;;17.90;99.90;;;;;;5025279;28;19925;-62
2021/07/04 01:50:06;;;;;;;;;;;17.80;99.90;;;;;;5038241;28;20280;-62
2021/07/04 01:52:54;;;;;;;;;;;17.70;99.90;;;;;;5047266;28;19936;-61
2021/07/04 01:55:44;;;;;;;;;;;17.60;99.90;;;;;;5048710;28;19929;-62
2021/07/04 02:02:09;;;;;;;;;;;17.60;99.90;;;;;;5043779;28;20368;-64
2021/07/04 02:05:00;;;;;;;;;;;17.60;99.90;;;;;;5054755;28;19929;-61
2021/07/04 02:07:50;;;;;;;;;;;17.60;99.90;;;;;;5049020;28;19925;-62
2021/07/04 02:10:40;;;;;;;;;;;17.60;99.90;;;;;;5053887;28;19925;-61
2021/07/04 02:13:31;;;;;;;;;;;17.60;99.90;;;;;;5043107;28;19925;-61
2021/07/04 02:16:23;;;;;;;;;;;17.70;99.90;;;;;;5044336;28;20508;-62
2021/07/04 02:19:17;;;;;;;;;;;17.70;99.90;;;;;;5042451;28;20008;-62
2021/07/04 02:22:29;;;;;;;;;;;17.80;99.90;;;;;;5035148;28;19932;-62
2021/07/04 02:25:44;;;;;;;;;;;17.80;99.90;;;;;;5049679;28;19924;-61
2021/07/04 02:28:33;;;;;;;;;;;17.80;99.90;;;;;;5048913;28;19952;-61
2021/07/04 02:31:28;;;;;;;;;;;17.80;99.90;;;;;;5028646;28;19931;-61
2021/07/04 02:34:18;;;;;;;;;;;17.80;99.90;;;;;;5040089;28;19924;-62
2021/07/04 02:37:13;;;;;;;;;;;17.80;99.90;;;;;;5065104;28;20011;-62
2021/07/04 02:40:14;;;;;;;;;;;17.80;99.90;;;;;;5066926;28;20325;-63
2021/07/04 02:43:07;;;;;;;;;;;17.80;99.90;;;;;;5044016;28;19978;-63
2021/07/04 02:45:58;;;;;;;;;;;17.80;99.90;;;;;;5052402;28;19948;-62
2021/07/04 02:48:49;;;;;;;;;;;17.80;99.90;;;;;;5064458;28;19928;-62
2021/07/04 02:51:38;;;;;;;;;;;17.80;99.90;;;;;;5036360;28;20388;-61
2021/07/04 02:54:30;;;;;;;;;;;17.80;99.90;;;;;;5040220;28;19978;-62
2021/07/04 02:57:27;;;;;;;;;;;17.80;99.90;;;;;;5057433;28;19924;-62
2021/07/04 03:00:21;;;;;;;;;;;17.70;99.90;;;;;;5042505;28;19990;-61
2021/07/04 03:03:10;;;;;;;;;;;17.70;99.90;;;;;;5067266;28;19936;-62
2021/07/04 03:06:09;;;;;;;;;;;17.60;99.90;;;;;;5072681;28;20622;-62
2021/07/04 03:08:58;;;;;;;;;;;17.60;99.90;;;;;;5052209;28;20300;-62
2021/07/04 03:11:48;;;;;;;;;;;17.60;99.90;;;;;;5069466;28;19932;-62
2021/07/04 03:14:38;;;;;;;;;;;17.60;99.90;;;;;;5071407;28;19929;-61
2021/07/04 03:17:27;;;;;;;;;;;17.50;99.90;;;;;;5054053;28;20007;-61
2021/07/04 03:20:17;;;;;;;;;;;17.50;99.90;;;;;;5049872;28;20392;-61
2021/07/04 03:23:12;;;;;;;;;;;17.50;99.90;;;;;;5047556;28;19928;-61
2021/07/04 03:26:01;;;;;;;;;;;17.50;99.90;;;;;;5061694;28;19925;-62
2021/07/04 03:28:52;;;;;;;;;;;17.50;99.90;;;;;;5047477;28;20434;-61
2021/07/04 03:31:51;;;;;;;;;;;17.50;99.90;;;;;;5039543;28;19931;-62
2021/07/04 03:34:41;;;;;;;;;;;17.40;99.90;;;;;;5040837;28;20437;-62
2021/07/04 03:37:30;;;;;;;;;;;17.40;99.90;;;;;;5062194;28;20307;-62
2021/07/04 03:40:20;;;;;;;;;;;17.40;99.90;;;;;;5061649;28;19924;-62
2021/07/04 03:43:14;;;;;;;;;;;17.30;99.90;;;;;;5066834;28;19935;-61
2021/07/04 03:46:02;;;;;;;;;;;17.30;99.90;;;;;;5052051;28;19940;-61
2021/07/04 03:48:58;;;;;;;;;;;17.30;99.90;;;;;;5039826;28;19925;-62
2021/07/04 03:51:54;;;;;;;;;;;17.30;99.90;;;;;;5032080;28;19928;-62
2021/07/04 03:54:45;;;;;;;;;;;17.30;99.90;;;;;;5051242;28;20316;-62
2021/07/04 03:57:46;;;;;;;;;;;17.30;99.90;;;;;;5048484;28;20384;-61
2021/07/04 04:00:45;;;;;;;;;;;17.20;99.90;;;;;;5046840;28;19924;-62
2021/07/04 04:03:43;;;;;;;;;;;17.30;99.90;;;;;;5045245;28;19929;-63
2021/07/04 04:06:32;;;;;;;;;;;17.20;99.90;;;;;;5063153;28;19924;-62
2021/07/04 04:09:34;;;;;;;;;;;17.20;99.90;;;;;;5052939;28;19929;-61
2021/07/04 04:12:26;;;;;;;;;;;17.20;99.90;;;;;;5056780;28;19924;-62
2021/07/04 04:15:16;;;;;;;;;;;17.20;99.90;;;;;;5042555;28;19932;-62
2021/07/04 04:18:09;;;;;;;;;;;17.10;99.90;;;;;;5041583;28;19943;-62
2021/07/04 04:21:00;;;;;;;;;;;17.20;99.90;;;;;;5057113;28;20063;-62
2021/07/04 04:23:48;;;;;;;;;;;17.20;99.90;;;;;;5061273;28;19943;-62
2021/07/04 04:26:42;;;;;;;;;;;17.20;99.90;;;;;;5052303;28;19935;-62
2021/07/04 04:29:36;;;;;;;;;;;17.20;99.90;;;;;;5038478;28;19925;-61
2021/07/04 04:32:26;;;;;;;;;;;17.20;99.90;;;;;;5047430;28;19933;-62
2021/07/04 04:35:15;;;;;;;;;;;17.30;99.90;;;;;;5053114;28;19987;-61
2021/07/04 04:38:04;;;;;;;;;;;17.30;99.90;;;;;;5054047;28;19925;-62
2021/07/04 04:40:52;;;;;;;;;;;17.30;99.90;;;;;;5069706;28;19940;-62
2021/07/04 04:43:41;;;;;;;;;;;17.40;99.90;;;;;;5063756;28;19930;-61
2021/07/04 04:46:30;;;;;;;;;;;17.40;99.90;;;;;;5055701;28;19925;-62
2021/07/04 04:49:20;;;;;;;;;;;17.40;99.90;;;;;;5058220;28;19998;-62
2021/07/04 04:52:08;;;;;;;;;;;17.40;99.90;;;;;;5052614;28;20353;-61
2021/07/04 04:54:57;;;;;;;;;;;17.50;99.90;;;;;;5070997;28;19928;-61
2021/07/04 04:57:46;;;;;;;;;;;17.50;99.90;;;;;;5072052;28;19978;-61
2021/07/04 05:00:35;;;;;;;;;;;17.50;99.90;;;;;;5049240;28;19937;-61
2021/07/04 05:03:24;;;;;;;;;;;17.40;99.90;;;;;;5032546;28;19925;-61
2021/07/04 05:06:14;;;;;;;;;;;17.40;99.90;;;;;;5035800;28;19925;-62
2021/07/04 05:09:03;;;;;;;;;;;17.40;99.90;;;;;;5015952;28;19926;-62
2021/07/04 05:11:52;;;;;;;;;;;17.40;99.90;;;;;;5035767;28;19932;-62
2021/07/04 05:14:40;;;;;;;;;;;17.30;99.90;;;;;;5033912;28;20010;-63
2021/07/04 05:17:28;;;;;;;;;;;17.40;99.90;;;;;;5053629;28;19924;-62
2021/07/04 05:20:17;;;;;;;;;;;17.40;99.90;;;;;;5057103;28;19932;-61
2021/07/04 05:23:07;;;;;;;;;;;17.40;99.90;;;;;;5060105;28;19995;-64
2021/07/04 05:25:58;;;;;;;;;;;17.40;99.90;;;;;;5061239;28;19929;-63
2021/07/04 05:28:46;;;;;;;;;;;17.40;99.90;;;;;;5057310;28;19928;-63
2021/07/04 05:31:35;;;;;;;;;;;17.50;99.90;;;;;;5045606;28;20741;-64
2021/07/04 05:34:26;;;;;;;;;;;17.50;99.90;;;;;;5054452;28;19925;-63
2021/07/04 05:37:16;;;;;;;;;;;17.50;99.90;;;;;;5054339;28;20427;-62
2021/07/04 05:40:11;;;;;;;;;;;17.60;99.90;;;;;;5059123;28;19924;-63
2021/07/04 05:43:01;;;;;;;;;;;17.60;99.90;;;;;;5041214;28;20439;-63
2021/07/04 05:45:51;;;;;;;;;;;17.60;99.90;;;;;;5045123;28;19924;-62
2021/07/04 05:48:41;;;;;;;;;;;17.60;99.90;;;;;;5055796;28;19925;-62
2021/07/04 05:51:29;;;;;;;;;;;17.60;99.90;;;;;;5052939;28;20372;-62
2021/07/04 05:54:18;;;;;;;;;;;17.70;99.90;;;;;;5052512;28;19929;-62
2021/07/04 05:57:08;;;;;;;;;;;17.70;99.90;;;;;;5060473;28;19933;-63
2021/07/04 05:59:56;;;;;;;;;;;17.80;99.90;;;;;;5060484;28;19929;-63
2021/07/04 06:02:48;;;;;;;;;;;17.90;99.90;;;;;;5062151;28;20007;-62
2021/07/04 06:05:37;;;;;;;;;;;18.00;99.90;;;;;;5055989;28;19929;-62
2021/07/04 06:08:25;;;;;;;;;;;18.10;99.90;;;;;;5053519;28;19925;-62
2021/07/04 06:11:14;;;;;;;;;;;18.10;99.90;;;;;;5059493;28;20304;-61
2021/07/04 06:14:04;;;;;;;;;;;18.20;99.90;;;;;;5051850;28;20388;-62
2021/07/04 06:16:57;;;;;;;;;;;18.10;99.90;;;;;;5046804;28;19925;-62
2021/07/04 06:19:46;;;;;;;;;;;18.20;99.90;;;;;;5066297;28;20613;-62
2021/07/04 06:22:35;;;;;;;;;;;18.20;99.90;;;;;;5055730;28;19925;-62
2021/07/04 06:25:24;;;;;;;;;;;18.10;99.90;;;;;;5054700;28;19932;-62
2021/07/04 06:28:13;;;;;;;;;;;18.00;99.90;;;;;;5058969;28;19979;-62
2021/07/04 06:31:03;;;;;;;;;;;18.10;99.90;;;;;;5050053;28;19932;-61
2021/07/04 06:34:16;;;;;;;;;;;18.30;99.90;;;;;;5052250;28;20299;-62
2021/07/04 06:37:05;;;;;;;;;;;18.20;99.90;;;;;;5058506;28;20031;-62
2021/07/04 06:39:54;;;;;;;;;;;18.20;99.90;;;;;;5060154;28;19925;-61
2021/07/04 06:42:42;;;;;;;;;;;18.20;99.90;;;;;;5053241;28;19929;-62
2021/07/04 06:45:32;;;;;;;;;;;18.20;99.90;;;;;;5034546;28;19925;-62
2021/07/04 06:48:22;;;;;;;;;;;18.20;99.90;;;;;;5012159;28;19972;-63
2021/07/04 06:51:11;;;;;;;;;;;18.30;99.90;;;;;;5008097;28;19937;-65
2021/07/04 06:54:24;;;;;;;;;;;18.40;99.90;;;;;;5025561;28;19948;-62
2021/07/04 06:57:37;;;;;;;;;;;18.50;99.90;;;;;;5007303;28;19936;-63
2021/07/04 07:00:27;;;;;;;;;;;18.50;99.90;;;;;;5006559;28;19933;-62
2021/07/04 07:03:15;;;;;;;;;;;18.60;99.90;;;;;;5035794;28;20003;-63
2021/07/04 07:06:06;;;;;;;;;;;18.60;99.90;;;;;;5036646;28;19925;-62
2021/07/04 07:08:54;;;;;;;;;;;18.50;99.90;;;;;;5039924;28;20278;-63
2021/07/04 07:11:43;;;;;;;;;;;18.70;99.90;;;;;;5021572;28;20436;-62
2021/07/04 07:14:31;;;;;;;;;;;18.90;99.90;;;;;;5039553;28;19969;-63
2021/07/04 07:17:20;;;;;;;;;;;19.30;99.90;;;;;;5029129;28;19976;-62
2021/07/04 07:20:37;;;;;;;;;;;19.70;99.90;;;;;;5029744;28;19953;-62
2021/07/04 07:23:28;;;;;;;;;;;19.50;99.90;;;;;;5036068;28;19929;-62
2021/07/04 07:26:16;;;;;;;;;;;19.40;99.90;;;;;;5041260;28;19983;-61
2021/07/04 07:29:05;;;;;;;;;;;19.40;99.90;;;;;;5038060;28;19986;-62
2021/07/04 07:31:54;;;;;;;;;;;19.40;99.90;;;;;;5024980;28;19925;-62
2021/07/04 07:34:42;;;;;;;;;;;19.40;99.90;;;;;;5037480;28;19928;-62
2021/07/04 07:37:31;;;;;;;;;;;19.50;99.90;;;;;;5038716;28;19967;-62
2021/07/04 07:40:21;;;;;;;;;;;19.80;99.90;;;;;;5017675;28;19925;-61
2021/07/04 07:43:13;;;;;;;;;;;19.60;99.90;;;;;;5026278;28;19947;-61
2021/07/04 07:46:02;;;;;;;;;;;19.60;99.90;;;;;;5024042;28;19932;-61
2021/07/04 07:48:53;;;;;;;;;;;19.60;99.90;;;;;;5011634;28;21174;-61
2021/07/04 07:51:59;;;;;;;;;;;19.90;99.90;;;;;;4987124;28;19930;-61
2021/07/04 07:55:06;;;;;;;;;;;20.10;99.90;;;;;;5012440;28;20397;-61
2021/07/04 07:58:00;;;;;;;;;;;20.70;99.90;;;;;;5002052;28;20337;-62
2021/07/04 08:00:48;;;;;;;;;;;21.40;99.90;;;;;;5018758;28;19929;-62
2021/07/04 08:03:38;;;;;;;;;;;21.10;99.90;;;;;;5014560;28;20079;-62
2021/07/04 08:06:26;;;;;;;;;;;20.80;99.90;;;;;;5035851;28;19924;-61
2021/07/04 08:09:15;;;;;;;;;;;21.10;99.90;;;;;;5033602;28;19932;-60
2021/07/04 08:12:08;;;;;;;;;;;21.20;99.90;;;;;;5031924;28;20025;-61
2021/07/04 08:15:06;;;;;;;;;;;21.10;99.90;;;;;;5026014;28;20273;-61
2021/07/04 08:17:55;;;;;;;;;;;21.40;99.90;;;;;;5033667;28;19930;-61
2021/07/04 08:20:44;;;;;;;;;;;21.50;99.90;;;;;;5032617;28;19929;-61
2021/07/04 08:23:32;;;;;;;;;;;22.20;99.90;;;;;;5025906;28;19925;-61
2021/07/04 08:26:21;;;;;;;;;;;22.70;99.90;;;;;;5024787;28;19932;-61
2021/07/04 08:29:09;;;;;;;;;;;21.90;99.90;;;;;;5033251;28;19929;-61
2021/07/04 08:32:00;;;;;;;;;;;21.70;99.90;;;;;;5027655;28;19932;-61
2021/07/04 08:34:51;;;;;;;;;;;21.70;99.90;;;;;;5037316;28;19936;-61
2021/07/04 08:37:42;;;;;;;;;;;22.00;99.90;;;;;;5037349;28;20056;-61
2021/07/04 08:40:35;;;;;;;;;;;22.00;99.90;;;;;;5028297;28;19929;-61
2021/07/04 08:43:28;;;;;;;;;;;22.70;99.90;;;;;;5043614;28;19925;-62
2021/07/04 08:46:16;;;;;;;;;;;24.10;99.90;;;;;;5042319;28;20353;-62
2021/07/04 08:49:06;;;;;;;;;;;23.90;99.90;;;;;;5040777;28;20366;-63
2021/07/04 08:51:56;;;;;;;;;;;23.10;99.90;;;;;;5036219;28;19929;-62
2021/07/04 08:54:44;;;;;;;;;;;23.20;99.90;;;;;;5034847;28;20012;-62
2021/07/04 08:57:33;;;;;;;;;;;24.10;99.90;;;;;;5031919;28;20358;-63
2021/07/04 09:00:22;;;;;;;;;;;25.20;99.90;;;;;;5031060;28;19928;-63
2021/07/04 09:03:24;;;;;;;;;;;27.30;99.10;;;;;;5044252;28;19929;-63
2021/07/04 09:06:14;;;;;;;;;;;29.20;94.20;;;;;;5040301;28;19935;-64
2021/07/04 09:09:17;;;;;;;;;;;28.50;94.70;;;;;;5044366;28;19925;-63
2021/07/04 09:12:07;;;;;;;;;;;28.10;92.30;;;;;;5036714;28;19925;-62
2021/07/04 09:14:57;;;;;;;;;;;25.60;97.90;;;;;;5034449;28;19932;-62
2021/07/04 09:18:14;;;;;;;;;;;25.20;97.80;;;;;;5065880;28;19924;-62
2021/07/04 09:21:16;;;;;;;;;;;25.20;98.20;;;;;;5067956;28;19924;-63
2021/07/04 09:24:21;;;;;;;;;;;25.90;97.80;;;;;;5059285;28;19925;-63
2021/07/04 09:27:12;;;;;;;;;;;28.70;93.50;;;;;;5060695;28;19935;-63
2021/07/04 09:30:00;;;;;;;;;;;27.40;92.70;;;;;;5064710;28;19973;-63
2021/07/04 09:32:49;;;;;;;;;;;25.80;95.00;;;;;;5046890;28;20003;-63
2021/07/04 09:35:38;;;;;;;;;;;25.40;95.50;;;;;;5015021;28;19932;-62
2021/07/04 09:38:32;;;;;;;;;;;24.30;97.50;;;;;;5037416;28;19932;-62
2021/07/04 09:41:21;;;;;;;;;;;23.80;98.80;;;;;;5025630;28;20051;-62
2021/07/04 09:44:23;;;;;;;;;;;25.00;98.00;;;;;;5028358;28;20026;-62
2021/07/04 09:47:12;;;;;;;;;;;25.00;98.50;;;;;;5047269;28;19931;-63
2021/07/04 09:50:02;;;;;;;;;;;26.50;96.70;;;;;;5074268;28;19947;-62
2021/07/04 09:52:58;;;;;;;;;;;25.70;95.80;;;;;;5054066;28;20639;-62
2021/07/04 09:55:51;;;;;;;;;;;24.90;97.50;;;;;;5056687;28;20250;-64
2021/07/04 09:59:04;;;;;;;;;;;26.00;97.00;;;;;;5055246;28;19929;-63
2021/07/04 10:01:53;;;;;;;;;;;27.20;95.10;;;;;;5031562;28;20230;-64
2021/07/04 10:04:42;;;;;;;;;;;25.50;95.50;;;;;;5035516;28;19929;-61
2021/07/04 10:07:32;;;;;;;;;;;25.00;97.10;;;;;;5029644;28;19936;-64
2021/07/04 10:10:23;;;;;;;;;;;25.30;97.80;;;;;;5037269;28;19925;-62
2021/07/04 10:13:13;;;;;;;;;;;25.50;97.10;;;;;;5043532;28;19924;-61
2021/07/04 10:16:02;;;;;;;;;;;25.00;98.10;;;;;;5035355;28;19948;-61
2021/07/04 10:18:51;;;;;;;;;;;25.30;98.50;;;;;;5051815;28;19928;-62
2021/07/04 10:21:40;;;;;;;;;;;25.90;97.70;;;;;;5054816;28;19935;-61
2021/07/04 10:24:29;;;;;;;;;;;26.70;96.30;;;;;;5051979;28;21427;-62
2021/07/04 10:27:17;;;;;;;;;;;26.30;94.70;;;;;;5060427;28;19966;-61
2021/07/04 10:30:08;;;;;;;;;;;26.10;96.30;;;;;;5046873;28;19944;-61
2021/07/04 10:33:07;;;;;;;;;;;26.70;95.30;;;;;;5051356;28;19925;-61
2021/07/04 10:36:03;;;;;;;;;;;26.70;95.60;;;;;;5053606;28;19924;-62
2021/07/04 10:38:55;;;;;;;;;;;26.30;95.20;;;;;;5051427;28;20007;-62
2021/07/04 10:41:52;;;;;;;;;;;26.00;96.00;;;;;;5053277;28;20031;-61
2021/07/04 10:45:06;;;;;;;;;;;25.80;97.00;;;;;;5046171;28;19924;-61
2021/07/04 10:47:58;;;;;;;;;;;26.00;97.30;;;;;;5055183;28;19924;-61
2021/07/04 10:51:01;;;;;;;;;;;25.30;97.10;;;;;;5047709;28;19925;-61
2021/07/04 10:53:51;;;;;;;;;;;24.90;98.30;;;;;;5053046;28;19932;-61
2021/07/04 10:56:43;;;;;;;;;;;24.40;98.50;;;;;;5052051;28;19936;-62
2021/07/04 10:59:57;;;;;;;;;;;24.00;98.90;;;;;;5052060;28;19929;-61
2021/07/04 11:02:46;;;;;;;;;;;23.50;99.70;;;;;;5054180;28;19929;-62
2021/07/04 11:05:49;;;;;;;;;;;23.30;99.90;;;;;;5057465;28;19987;-62
2021/07/04 11:08:52;;;;;;;;;;;23.00;99.90;;;;;;5054773;28;19929;-62
2021/07/04 11:11:41;;;;;;;;;;;22.70;99.90;;;;;;5052498;28;19943;-61
2021/07/04 11:14:29;;;;;;;;;;;21.70;99.90;;;;;;5049746;28;19925;-61
2021/07/04 11:17:18;;;;;;;;;;;20.80;99.90;;;;;;5043167;28;19929;-62
2021/07/04 11:20:07;;;;;;;;;;;20.30;99.90;;;;;;5054343;28;19924;-61
2021/07/04 11:22:57;;;;;;;;;;;20.00;99.90;;;;;;5057925;28;19937;-61
2021/07/04 11:25:47;;;;;;;;;;;19.80;99.90;;;;;;5052378;28;19982;-61
2021/07/04 11:28:38;;;;;;;;;;;19.80;99.90;;;;;;5060923;28;19998;-62
2021/07/04 11:31:27;;;;;;;;;;;19.60;99.90;;;;;;5049583;28;20019;-61
2021/07/04 11:34:20;;;;;;;;;;;19.50;99.90;;;;;;5050111;28;19971;-62
2021/07/04 11:37:12;;;;;;;;;;;19.50;99.90;;;;;;5051969;28;19951;-62
2021/07/04 11:40:02;;;;;;;;;;;19.50;99.90;;;;;;5055037;28;20406;-61
2021/07/04 11:46:04;;;;;;;;;;;19.20;99.90;;;;;;5028429;28;19932;-64
2021/07/04 11:48:54;;;;;;;;;;;19.00;99.90;;;;;;5028089;28;19929;-61
2021/07/04 11:51:44;;;;;;;;;;;18.90;99.90;;;;;;5026201;28;19980;-62
2021/07/04 11:54:38;;;;;;;;;;;18.80;99.90;;;;;;5033338;28;19925;-62
2021/07/04 11:57:30;;;;;;;;;;;18.80;99.90;;;;;;5030410;28;19932;-62
2021/07/04 12:00:19;;;;;;;;;;;18.80;99.90;;;;;;5027802;28;19940;-62
2021/07/04 12:03:08;;;;;;;;;;;18.90;99.90;;;;;;5028998;28;19992;-62
2021/07/04 12:06:11;;;;;;;;;;;19.10;99.90;;;;;;5029916;28;19936;-62
2021/07/04 12:09:00;;;;;;;;;;;19.20;99.90;;;;;;5036127;28;19940;-61
2021/07/04 12:11:51;;;;;;;;;;;19.40;99.90;;;;;;5047376;28;19925;-62
2021/07/04 12:14:42;;;;;;;;;;;19.30;99.90;;;;;;5037182;28;19925;-61
2021/07/04 12:17:32;;;;;;;;;;;19.50;99.90;;;;;;5038089;28;19926;-62
2021/07/04 12:20:22;;;;;;;;;;;19.80;99.90;;;;;;5040260;28;19936;-62
2021/07/04 12:23:13;;;;;;;;;;;19.80;99.90;;;;;;5040542;28;19945;-62
2021/07/04 12:26:06;;;;;;;;;;;20.00;99.90;;;;;;5030380;28;19953;-61
2021/07/04 12:29:01;;;;;;;;;;;20.30;99.90;;;;;;5045968;28;19925;-62
2021/07/04 12:32:00;;;;;;;;;;;20.50;99.90;;;;;;5029108;28;19944;-62
2021/07/04 12:34:50;;;;;;;;;;;20.60;99.90;;;;;;5033557;28;19941;-62
2021/07/04 12:37:39;;;;;;;;;;;20.70;99.90;;;;;;5033072;28;19929;-65
2021/07/04 12:40:29;;;;;;;;;;;20.60;99.90;;;;;;5039572;28;19928;-62
2021/07/04 12:43:19;;;;;;;;;;;20.80;99.90;;;;;;5031223;28;20040;-63
2021/07/04 12:46:15;;;;;;;;;;;20.80;99.90;;;;;;5027867;28;20392;-65
2021/07/04 12:49:05;;;;;;;;;;;21.00;99.90;;;;;;5035318;28;19966;-62
2021/07/04 12:51:54;;;;;;;;;;;21.10;99.90;;;;;;5030770;28;20252;-60
2021/07/04 12:54:43;;;;;;;;;;;21.30;99.90;;;;;;5035293;28;20071;-62
2021/07/04 12:57:33;;;;;;;;;;;21.30;99.90;;;;;;5032401;28;20035;-62
2021/07/04 13:00:21;;;;;;;;;;;21.20;99.90;;;;;;5029339;28;19925;-62
2021/07/04 13:03:10;;;;;;;;;;;21.30;99.90;;;;;;5039076;28;19964;-61
2021/07/04 13:06:00;;;;;;;;;;;21.30;99.90;;;;;;5036512;28;19971;-61
2021/07/04 13:09:15;;;;;;;;;;;21.20;99.90;;;;;;5030017;28;20288;-62
2021/07/04 13:12:05;;;;;;;;;;;21.40;99.90;;;;;;5033355;28;19947;-61
2021/07/04 13:14:55;;;;;;;;;;;21.40;99.90;;;;;;5036246;28;19975;-61
2021/07/04 13:17:44;;;;;;;;;;;21.30;99.90;;;;;;5031319;28;19965;-62
2021/07/04 13:20:34;;;;;;;;;;;21.30;99.90;;;;;;5037497;28;19998;-61
2021/07/04 13:23:24;;;;;;;;;;;21.60;99.90;;;;;;5035459;28;20414;-60
2021/07/04 13:26:13;;;;;;;;;;;21.70;99.90;;;;;;5045647;28;20404;-63
2021/07/04 13:32:28;;;;;;;;;;;22.00;99.90;;;;;;5029537;28;19984;-62
2021/07/04 13:35:16;;;;;;;;;;;22.20;99.90;;;;;;5036026;28;19933;-61
2021/07/04 13:38:06;;;;;;;;;;;22.10;99.90;;;;;;5037919;28;19929;-61
2021/07/04 13:40:57;;;;;;;;;;;22.40;99.90;;;;;;5034345;28;19925;-61
2021/07/04 13:43:46;;;;;;;;;;;22.40;99.90;;;;;;5026695;28;19960;-61
2021/07/04 13:46:35;;;;;;;;;;;22.60;99.90;;;;;;5042249;28;19940;-61
2021/07/04 13:49:23;;;;;;;;;;;22.70;99.90;;;;;;5061521;28;19924;-61
2021/07/04 13:52:13;;;;;;;;;;;23.20;99.90;;;;;;5055028;28;19957;-62
2021/07/04 13:55:03;;;;;;;;;;;23.40;99.90;;;;;;5057408;28;20022;-61
2021/07/04 13:57:53;;;;;;;;;;;23.30;99.90;;;;;;5053785;28;19928;-62
2021/07/04 14:00:46;;;;;;;;;;;23.20;99.90;;;;;;5043937;28;20038;-61
2021/07/04 14:03:35;;;;;;;;;;;23.20;99.90;;;;;;5057244;28;20074;-61
2021/07/04 14:06:23;;;;;;;;;;;23.60;99.90;;;;;;5052425;28;20071;-62
2021/07/04 14:09:13;;;;;;;;;;;23.70;99.90;;;;;;5053143;28;19932;-61
2021/07/04 14:12:01;;;;;;;;;;;23.60;99.90;;;;;;5051888;28;19925;-61
2021/07/04 14:14:51;;;;;;;;;;;23.30;99.90;;;;;;5051454;28;20358;-61
2021/07/04 14:17:40;;;;;;;;;;;23.50;99.90;;;;;;5039083;28;19929;-61
2021/07/04 14:20:32;;;;;;;;;;;23.90;99.90;;;;;;5038310;28;19925;-62
2021/07/04 14:23:20;;;;;;;;;;;23.90;99.90;;;;;;5035930;28;20379;-62
2021/07/04 14:26:34;;;;;;;;;;;23.70;99.90;;;;;;5054360;28;19929;-61
2021/07/04 14:29:24;;;;;;;;;;;23.30;99.90;;;;;;5058095;28;19924;-61
2021/07/04 14:32:14;;;;;;;;;;;23.30;99.90;;;;;;5038421;28;20039;-61
2021/07/04 14:35:04;;;;;;;;;;;23.20;99.90;;;;;;5044415;28;19925;-62
2021/07/04 14:37:53;;;;;;;;;;;23.10;99.90;;;;;;5053822;28;19933;-62
2021/07/04 14:40:42;;;;;;;;;;;23.20;99.90;;;;;;5056522;28;19924;-62
2021/07/04 14:43:30;;;;;;;;;;;23.00;99.90;;;;;;5055408;28;19924;-62
2021/07/04 14:46:19;;;;;;;;;;;23.10;99.90;;;;;;5046787;28;20011;-62
2021/07/04 14:49:10;;;;;;;;;;;23.10;99.90;;;;;;5043413;28;20372;-62
2021/07/04 14:51:58;;;;;;;;;;;23.10;99.90;;;;;;5050940;28;20014;-62
2021/07/04 14:54:49;;;;;;;;;;;23.20;99.90;;;;;;5062944;28;19933;-62
2021/07/04 14:57:38;;;;;;;;;;;23.10;99.90;;;;;;5051922;28;19940;-62
2021/07/04 15:00:27;;;;;;;;;;;23.20;99.90;;;;;;5045587;28;20373;-61
2021/07/04 15:03:16;;;;;;;;;;;23.00;99.90;;;;;;5050606;28;20359;-62
2021/07/04 15:06:14;;;;;;;;;;;22.80;99.90;;;;;;5053619;28;20012;-62
2021/07/04 15:09:05;;;;;;;;;;;22.90;99.90;;;;;;5050548;28;19931;-61
2021/07/04 15:11:53;;;;;;;;;;;23.10;99.90;;;;;;5055363;28;19948;-62
2021/07/04 15:14:42;;;;;;;;;;;23.30;99.90;;;;;;5053335;28;19935;-62
2021/07/04 15:20:44;;;;;;;;;;;23.50;99.90;;;;;;5064129;28;19925;-62
2021/07/04 15:23:34;;;;;;;;;;;23.40;99.90;;;;;;5051802;28;20014;-61
2021/07/04 15:26:25;;;;;;;;;;;23.30;99.90;;;;;;5042064;28;19925;-64
2021/07/04 15:29:39;;;;;;;;;;;23.50;99.90;;;;;;5052084;28;19925;-62
2021/07/04 15:32:27;;;;;;;;;;;23.40;99.90;;;;;;5048849;28;20006;-62
2021/07/04 15:35:16;;;;;;;;;;;23.20;99.90;;;;;;5048212;28;20381;-62
2021/07/04 15:38:07;;;;;;;;;;;23.30;99.90;;;;;;5050469;28;19979;-63
2021/07/04 15:41:00;;;;;;;;;;;23.60;99.90;;;;;;5049529;28;19925;-64
2021/07/04 15:43:49;;;;;;;;;;;23.70;99.90;;;;;;5048765;28;20265;-62
2021/07/04 15:46:38;;;;;;;;;;;23.70;99.90;;;;;;5044848;28;19929;-63
2021/07/04 15:49:27;;;;;;;;;;;23.70;99.90;;;;;;5039272;28;20007;-62
2021/07/04 15:52:15;;;;;;;;;;;23.60;99.90;;;;;;5061881;28;19932;-62
2021/07/04 15:55:05;;;;;;;;;;;23.40;99.90;;;;;;5047571;28;20071;-62
2021/07/04 15:57:55;;;;;;;;;;;23.10;99.90;;;;;;5047576;28;20007;-62
2021/07/04 16:00:45;;;;;;;;;;;23.10;99.90;;;;;;5043461;28;19929;-62
2021/07/04 16:03:33;;;;;;;;;;;23.20;99.90;;;;;;5042652;28;20019;-62
2021/07/04 16:06:24;;;;;;;;;;;23.10;99.90;;;;;;5035432;28;19925;-65
2021/07/04 16:09:13;;;;;;;;;;;23.00;99.90;;;;;;5044556;28;19925;-62
2021/07/04 16:12:02;;;;;;;;;;;23.00;99.90;;;;;;5044886;28;19925;-62
2021/07/04 16:14:56;;;;;;;;;;;23.00;99.90;;;;;;5040603;28;19964;-62
2021/07/04 16:17:45;;;;;;;;;;;23.10;99.90;;;;;;5037817;28;20630;-62
2021/07/04 16:20:34;;;;;;;;;;;23.10;99.90;;;;;;5039622;28;19932;-62
2021/07/04 16:23:22;;;;;;;;;;;23.00;99.90;;;;;;5040757;28;19966;-62
2021/07/04 16:26:12;;;;;;;;;;;22.90;99.90;;;;;;5042352;28;19933;-62
2021/07/04 16:29:05;;;;;;;;;;;22.80;99.90;;;;;;5041370;28;19928;-62
2021/07/04 16:31:56;;;;;;;;;;;22.90;99.90;;;;;;5048746;28;19933;-61
2021/07/04 16:34:45;;;;;;;;;;;22.80;99.90;;;;;;5057600;28;19932;-62
2021/07/04 16:37:34;;;;;;;;;;;22.90;99.90;;;;;;5040181;28;19960;-62
2021/07/04 16:40:24;;;;;;;;;;;23.00;99.90;;;;;;5057168;28;19935;-61
2021/07/04 16:43:12;;;;;;;;;;;22.90;99.90;;;;;;5038411;28;19925;-62
2021/07/04 16:46:01;;;;;;;;;;;22.90;99.90;;;;;;5046384;28;19925;-61
2021/07/04 16:48:51;;;;;;;;;;;23.00;99.90;;;;;;5043981;28;19947;-61
2021/07/04 16:51:39;;;;;;;;;;;23.10;99.90;;;;;;5047432;28;19925;-61